Time;durP1;ratioP1;P1;durP2;ratioP2;P2;SDS_P1;SDS_P2;PMS_P1;PMS_P2;Temp;Humidity;BMP_temperature;BMP_pressure;BME280_temperature;BME280_humidity;BME280_pressure;Samples;Min_cycle;Max_cycle;Signal;HPM_P1;HPM_P2
2021/10/03 00:00:11;;;;;;;;;;;;;;;14.41;43.66;94278.91;4972169;28;20017;-66
2021/10/03 00:02:36;;;;;;;;;;;;;;;14.20;43.59;94274.97;4944427;28;19914;-65
2021/10/03 00:05:02;;;;;;;;;;;;;;;12.91;47.77;94270.72;4948795;28;19926;-66
2021/10/03 00:07:27;;;;;;;;;;;;;;;14.28;44.15;94263.09;4964274;28;20029;-66
2021/10/03 00:09:52;;;;;;;;;;;;;;;14.29;44.28;94264.72;4964013;28;19914;-66
2021/10/03 00:12:18;;;;;;;;;;;;;;;14.62;43.55;94265.13;4958828;28;20054;-66
2021/10/03 00:14:43;;;;;;;;;;;;;;;13.95;43.91;94266.13;4958261;28;19921;-63
2021/10/03 00:17:09;;;;;;;;;;;;;;;13.65;45.32;94255.50;4964356;28;19926;-63
2021/10/03 00:19:34;;;;;;;;;;;;;;;14.40;43.85;94257.72;4963704;28;20013;-64
2021/10/03 00:21:59;;;;;;;;;;;;;;;14.19;43.80;94263.47;4964664;28;19914;-63
2021/10/03 00:24:26;;;;;;;;;;;;;;;14.61;43.51;94250.94;4963854;28;20395;-64
2021/10/03 00:26:52;;;;;;;;;;;;;;;14.24;43.52;94256.59;4963826;28;19918;-63
2021/10/03 00:29:17;;;;;;;;;;;;;;;14.56;43.12;94258.88;4964413;28;19921;-63
2021/10/03 00:31:42;;;;;;;;;;;;;;;13.10;46.77;94257.38;4963795;28;19914;-64
2021/10/03 00:34:07;;;;;;;;;;;;;;;14.17;43.93;94252.16;4963991;28;20287;-64
2021/10/03 00:36:32;;;;;;;;;;;;;;;13.41;44.92;94247.47;4963516;28;19993;-64
2021/10/03 00:38:58;;;;;;;;;;;;;;;13.49;45.53;94247.13;4963812;28;19973;-63
2021/10/03 00:41:23;;;;;;;;;;;;;;;12.56;47.65;94253.53;4964118;28;19918;-64
2021/10/03 00:43:48;;;;;;;;;;;;;;;13.94;43.84;94237.75;4963452;28;20348;-64
2021/10/03 00:46:14;;;;;;;;;;;;;;;14.42;43.37;94263.66;4953372;28;19918;-63
2021/10/03 00:48:39;;;;;;;;;;;;;;;14.22;43.68;94272.88;4962246;28;19918;-65
2021/10/03 00:51:04;;;;;;;;;;;;;;;12.88;46.84;94274.69;4963864;28;19918;-63
2021/10/03 00:53:30;;;;;;;;;;;;;;;13.87;44.79;94258.44;4964017;28;20433;-64
2021/10/03 00:55:55;;;;;;;;;;;;;;;14.30;43.55;94269.03;4963519;28;19918;-64
2021/10/03 00:58:21;;;;;;;;;;;;;;;13.81;44.27;94259.38;4963703;28;19909;-65
2021/10/03 01:00:46;;;;;;;;;;;;;;;14.40;43.29;94271.09;4962064;28;20383;-64
2021/10/03 01:03:11;;;;;;;;;;;;;;;14.20;43.80;94281.16;4963387;28;19957;-65
2021/10/03 01:05:37;;;;;;;;;;;;;;;14.37;43.43;94272.41;4964039;28;19980;-65
2021/10/03 01:08:02;;;;;;;;;;;;;;;13.65;45.12;94274.22;4961831;28;19918;-65
2021/10/03 01:10:28;;;;;;;;;;;;;;;14.25;43.96;94274.28;4963460;28;20466;-64
2021/10/03 01:12:56;;;;;;;;;;;;;;;14.53;43.31;94275.41;4954185;28;19920;-63
2021/10/03 01:15:22;;;;;;;;;;;;;;;13.48;45.79;94276.75;4958722;28;19924;-63
2021/10/03 01:17:47;;;;;;;;;;;;;;;12.87;46.93;94270.38;4961837;28;19922;-64
2021/10/03 01:20:12;;;;;;;;;;;;;;;13.97;44.59;94267.78;4963155;28;20227;-64
2021/10/03 01:22:38;;;;;;;;;;;;;;;13.95;44.53;94276.84;4962826;28;20462;-65
2021/10/03 01:25:04;;;;;;;;;;;;;;;13.66;45.32;94276.69;4963375;28;20005;-64
2021/10/03 01:27:29;;;;;;;;;;;;;;;13.70;45.82;94285.88;4962875;28;19983;-64
2021/10/03 01:29:54;;;;;;;;;;;;;;;13.97;44.85;94283.84;4963703;28;20319;-64
2021/10/03 01:32:20;;;;;;;;;;;;;;;13.70;45.01;94285.88;4963060;28;19924;-65
2021/10/03 01:34:45;;;;;;;;;;;;;;;14.27;44.25;94298.94;4963107;28;19914;-63
2021/10/03 01:37:10;;;;;;;;;;;;;;;14.58;43.31;94288.88;4963516;28;20234;-64
2021/10/03 01:39:35;;;;;;;;;;;;;;;14.82;42.68;94286.19;4963116;28;20411;-64
2021/10/03 01:42:01;;;;;;;;;;;;;;;14.13;44.44;94291.16;4962051;28;19914;-63
2021/10/03 01:44:26;;;;;;;;;;;;;;;14.68;43.42;94289.09;4959506;28;19918;-64
2021/10/03 01:46:51;;;;;;;;;;;;;;;14.26;44.52;94286.59;4956470;28;20425;-63
2021/10/03 01:49:17;;;;;;;;;;;;;;;13.70;45.71;94283.19;4963099;28;19924;-63
2021/10/03 01:51:42;;;;;;;;;;;;;;;13.72;45.79;94260.75;4962924;28;20032;-64
2021/10/03 01:54:07;;;;;;;;;;;;;;;13.14;47.78;94272.72;4963319;28;20311;-64
2021/10/03 01:56:34;;;;;;;;;;;;;;;13.09;47.86;94275.25;4962947;28;19957;-64
2021/10/03 01:59:01;;;;;;;;;;;;;;;13.30;46.35;94291.84;4961529;28;20363;-64
2021/10/03 02:01:28;;;;;;;;;;;;;;;13.75;46.24;94266.47;4961810;28;19910;-64
2021/10/03 02:03:53;;;;;;;;;;;;;;;14.18;45.06;94275.22;4961349;28;19918;-64
2021/10/03 02:06:19;;;;;;;;;;;;;;;14.14;44.84;94268.69;4963460;28;19937;-64
2021/10/03 02:08:44;;;;;;;;;;;;;;;14.31;44.51;94274.16;4962652;28;19917;-64
2021/10/03 02:11:09;;;;;;;;;;;;;;;14.38;44.40;94263.31;4962603;28;20624;-64
2021/10/03 02:13:34;;;;;;;;;;;;;;;14.62;43.81;94262.47;4958147;28;19914;-65
2021/10/03 02:16:03;;;;;;;;;;;;;;;15.13;42.67;94264.53;4946327;28;19985;-64
2021/10/03 02:18:31;;;;;;;;;;;;;;;14.38;44.65;94257.94;4952182;28;19914;-65
2021/10/03 02:20:57;;;;;;;;;;;;;;;15.00;43.11;94254.91;4982150;28;19962;-65
2021/10/03 02:23:22;;;;;;;;;;;;;;;15.05;42.57;94252.31;4984435;28;19964;-65
2021/10/03 02:25:48;;;;;;;;;;;;;;;15.23;42.63;94252.13;4985917;28;19964;-64
2021/10/03 02:28:21;;;;;;;;;;;;;;;14.95;43.15;94250.25;4983991;28;20137;-64
2021/10/03 02:30:46;;;;;;;;;;;;;;;14.53;44.01;94252.13;4984568;28;20135;-64
2021/10/03 02:33:11;;;;;;;;;;;;;;;14.58;44.60;94249.53;4973073;28;20016;-65
2021/10/03 02:35:40;;;;;;;;;;;;;;;14.67;43.88;94239.28;4983997;28;19939;-65
2021/10/03 02:38:09;;;;;;;;;;;;;;;13.79;46.10;94245.41;4984168;28;19909;-65
2021/10/03 02:40:34;;;;;;;;;;;;;;;14.98;43.79;94234.53;4983694;28;20012;-66
2021/10/03 02:43:03;;;;;;;;;;;;;;;15.42;42.61;94222.41;4983827;28;20264;-65
2021/10/03 02:45:29;;;;;;;;;;;;;;;14.78;44.16;94229.59;4985623;28;20134;-65
2021/10/03 02:47:55;;;;;;;;;;;;;;;14.62;44.82;94224.97;4985082;28;20012;-66
2021/10/03 02:50:21;;;;;;;;;;;;;;;14.47;44.98;94228.97;4985513;28;20004;-66
2021/10/03 02:52:46;;;;;;;;;;;;;;;15.08;43.66;94223.19;4985378;28;19914;-66
2021/10/03 02:55:12;;;;;;;;;;;;;;;15.16;43.08;94229.22;4985164;28;19964;-65
2021/10/03 02:57:37;;;;;;;;;;;;;;;14.76;44.55;94223.69;4985444;28;19917;-65
2021/10/03 03:00:04;;;;;;;;;;;;;;;14.74;44.61;94209.69;4984670;28;19920;-66
2021/10/03 03:02:29;;;;;;;;;;;;;;;14.66;44.72;94220.75;5000027;28;20367;-66
2021/10/03 03:04:54;;;;;;;;;;;;;;;14.08;46.00;94208.09;4984875;28;19922;-66
2021/10/03 03:07:19;;;;;;;;;;;;;;;14.18;45.49;94221.69;4985149;28;20367;-66
2021/10/03 03:09:45;;;;;;;;;;;;;;;14.70;44.20;94211.19;4985430;28;20000;-66
2021/10/03 03:12:10;;;;;;;;;;;;;;;14.83;44.75;94200.22;4984396;28;19917;-66
2021/10/03 03:14:35;;;;;;;;;;;;;;;14.49;45.48;94207.31;4984584;28;19967;-65
2021/10/03 03:17:02;;;;;;;;;;;;;;;14.81;43.29;94183.59;4984521;28;20638;-65
2021/10/03 03:19:27;;;;;;;;;;;;;;;14.54;45.49;94200.19;4975810;28;19981;-65
2021/10/03 03:21:53;;;;;;;;;;;;;;;13.67;47.92;94199.94;4966160;28;20327;-66
2021/10/03 03:24:19;;;;;;;;;;;;;;;13.08;48.53;94190.81;4964989;28;19928;-66
2021/10/03 03:26:44;;;;;;;;;;;;;;;13.17;49.10;94177.94;4965283;28;19918;-65
2021/10/03 03:29:10;;;;;;;;;;;;;;;14.14;46.79;94183.06;4965532;28;19914;-66
2021/10/03 03:31:35;;;;;;;;;;;;;;;14.29;45.76;94165.69;4965100;28;20018;-66
2021/10/03 03:34:00;;;;;;;;;;;;;;;14.00;46.89;94176.34;4951473;28;20250;-66
2021/10/03 03:36:25;;;;;;;;;;;;;;;14.29;46.10;94174.56;4948168;28;19918;-66
2021/10/03 03:38:51;;;;;;;;;;;;;;;14.44;45.68;94170.53;4952716;28;19950;-66
2021/10/03 03:41:16;;;;;;;;;;;;;;;14.65;45.34;94161.00;4947186;28;20365;-65
2021/10/03 03:43:42;;;;;;;;;;;;;;;14.80;43.80;94165.06;4946979;28;19918;-66
2021/10/03 03:46:07;;;;;;;;;;;;;;;14.72;45.09;94166.22;4955312;28;19925;-65
2021/10/03 03:48:32;;;;;;;;;;;;;;;15.17;43.97;94161.13;4946989;28;19925;-66
2021/10/03 03:50:58;;;;;;;;;;;;;;;14.87;44.49;94183.66;4946380;28;20347;-66
2021/10/03 03:53:23;;;;;;;;;;;;;;;14.81;45.17;94180.91;4946814;28;19922;-66
2021/10/03 03:55:48;;;;;;;;;;;;;;;15.01;44.18;94174.28;4944883;28;19915;-66
2021/10/03 03:58:13;;;;;;;;;;;;;;;13.86;47.58;94171.22;4946331;28;19914;-66
2021/10/03 04:00:39;;;;;;;;;;;;;;;14.72;44.91;94167.03;4946571;28;19925;-66
2021/10/03 04:03:04;;;;;;;;;;;;;;;14.87;44.54;94164.91;4946137;28;20017;-66
2021/10/03 04:05:29;;;;;;;;;;;;;;;14.84;44.50;94171.56;4952665;28;20037;-66
2021/10/03 04:07:54;;;;;;;;;;;;;;;14.61;44.36;94167.09;4964724;28;20295;-66
2021/10/03 04:10:20;;;;;;;;;;;;;;;14.05;46.99;94173.78;4964835;28;20478;-66
2021/10/03 04:12:45;;;;;;;;;;;;;;;14.31;46.05;94161.72;4955667;28;19922;-66
2021/10/03 04:15:10;;;;;;;;;;;;;;;15.11;44.36;94152.19;4961540;28;19918;-66
2021/10/03 04:17:36;;;;;;;;;;;;;;;14.65;44.83;94158.34;4962928;28;20381;-66
2021/10/03 04:20:01;;;;;;;;;;;;;;;14.94;44.60;94162.91;4964312;28;19918;-66
2021/10/03 04:22:27;;;;;;;;;;;;;;;14.51;45.66;94162.38;4964842;28;19914;-67
2021/10/03 04:24:52;;;;;;;;;;;;;;;14.53;45.41;94160.25;4963986;28;20020;-66
2021/10/03 04:27:17;;;;;;;;;;;;;;;15.09;44.26;94152.44;4964180;28;19914;-66
2021/10/03 04:29:42;;;;;;;;;;;;;;;15.32;43.56;94157.88;4962997;28;19921;-67
2021/10/03 04:32:08;;;;;;;;;;;;;;;15.49;43.11;94153.34;4964023;28;20295;-67
2021/10/03 04:34:33;;;;;;;;;;;;;;;15.34;43.57;94148.53;4962983;28;20564;-66
2021/10/03 04:36:59;;;;;;;;;;;;;;;15.60;43.06;94166.91;4962312;28;19909;-67
2021/10/03 04:39:25;;;;;;;;;;;;;;;15.18;43.49;94155.53;4964343;28;19914;-64
2021/10/03 04:41:51;;;;;;;;;;;;;;;15.56;43.18;94155.88;4964223;28;19981;-63
2021/10/03 04:44:16;;;;;;;;;;;;;;;15.38;43.68;94161.44;4961931;28;19918;-64
2021/10/03 04:46:41;;;;;;;;;;;;;;;15.26;43.88;94159.66;4955655;28;19965;-63
2021/10/03 04:49:07;;;;;;;;;;;;;;;15.31;43.71;94161.63;4964070;28;20438;-64
2021/10/03 04:51:32;;;;;;;;;;;;;;;15.30;43.61;94160.00;4963997;28;19918;-63
2021/10/03 04:53:57;;;;;;;;;;;;;;;15.44;43.44;94155.13;4963821;28;19934;-64
2021/10/03 04:56:22;;;;;;;;;;;;;;;15.45;42.95;94154.88;4963624;28;20399;-63
2021/10/03 04:58:48;;;;;;;;;;;;;;;15.21;43.58;94160.41;4963912;28;20005;-63
2021/10/03 05:01:14;;;;;;;;;;;;;;;15.26;43.71;94156.97;4963929;28;20294;-64
2021/10/03 05:03:39;;;;;;;;;;;;;;;15.31;42.85;94153.56;4961492;28;19914;-63
2021/10/03 05:06:07;;;;;;;;;;;;;;;15.32;43.29;94158.69;4963650;28;19925;-62
2021/10/03 05:08:32;;;;;;;;;;;;;;;15.27;43.38;94160.50;4963395;28;19918;-63
2021/10/03 05:10:58;;;;;;;;;;;;;;;15.40;42.99;94156.66;4963603;28;20404;-64
2021/10/03 05:13:23;;;;;;;;;;;;;;;15.63;42.11;94161.06;4955694;28;19910;-64
2021/10/03 05:15:48;;;;;;;;;;;;;;;15.28;42.97;94172.81;4960913;28;19926;-63
2021/10/03 05:18:13;;;;;;;;;;;;;;;15.68;40.99;94174.56;4963461;28;20367;-64
2021/10/03 05:20:39;;;;;;;;;;;;;;;15.19;42.77;94175.91;4963658;28;20104;-63
2021/10/03 05:23:04;;;;;;;;;;;;;;;15.52;42.49;94186.06;4961609;28;19925;-63
2021/10/03 05:25:29;;;;;;;;;;;;;;;15.51;41.74;94163.81;4963932;28;20296;-64
2021/10/03 05:27:54;;;;;;;;;;;;;;;15.49;42.28;94173.97;4963210;28;19914;-64
2021/10/03 05:30:20;;;;;;;;;;;;;;;15.32;42.50;94166.75;4963939;28;19933;-64
2021/10/03 05:32:46;;;;;;;;;;;;;;;15.38;42.15;94164.97;4963231;28;20292;-63
2021/10/03 05:35:11;;;;;;;;;;;;;;;15.45;41.90;94152.19;4962861;28;20010;-64
2021/10/03 05:37:36;;;;;;;;;;;;;;;15.64;41.74;94159.19;4963394;28;19999;-64
2021/10/03 05:40:02;;;;;;;;;;;;;;;15.82;40.69;94158.94;4950052;28;19929;-64
2021/10/03 05:42:28;;;;;;;;;;;;;;;15.58;41.78;94166.34;4959062;28;20562;-64
2021/10/03 05:44:53;;;;;;;;;;;;;;;15.38;41.91;94167.63;4952236;28;19926;-64
2021/10/03 05:47:18;;;;;;;;;;;;;;;15.59;41.66;94173.34;4954780;28;19918;-64
2021/10/03 05:49:43;;;;;;;;;;;;;;;15.52;41.37;94167.28;4959163;28;19917;-65
2021/10/03 05:52:09;;;;;;;;;;;;;;;14.09;43.92;94180.28;4959108;28;20376;-63
2021/10/03 05:54:34;;;;;;;;;;;;;;;14.85;42.93;94170.50;4957235;28;19964;-64
2021/10/03 05:56:59;;;;;;;;;;;;;;;14.81;42.76;94166.69;4959548;28;20545;-64
2021/10/03 05:59:24;;;;;;;;;;;;;;;15.70;41.04;94164.38;4962598;28;19949;-64
2021/10/03 06:01:50;;;;;;;;;;;;;;;14.56;43.04;94178.53;4962700;28;20219;-65
2021/10/03 06:04:15;;;;;;;;;;;;;;;15.45;41.36;94162.94;4962435;28;20311;-65
2021/10/03 06:06:40;;;;;;;;;;;;;;;14.57;42.68;94169.44;4962249;28;20009;-65
2021/10/03 06:09:05;;;;;;;;;;;;;;;15.31;41.13;94166.97;4962928;28;19922;-64
2021/10/03 06:11:31;;;;;;;;;;;;;;;15.37;41.12;94176.75;4962376;28;19991;-65
2021/10/03 06:13:57;;;;;;;;;;;;;;;15.78;40.46;94179.25;4951521;28;19921;-65
2021/10/03 06:16:22;;;;;;;;;;;;;;;15.75;39.99;94187.81;4956270;28;19957;-65
2021/10/03 06:18:48;;;;;;;;;;;;;;;14.70;42.40;94166.47;4962080;28;19926;-65
2021/10/03 06:21:14;;;;;;;;;;;;;;;15.45;40.88;94184.38;4954982;28;19916;-65
2021/10/03 06:23:40;;;;;;;;;;;;;;;14.91;41.34;94180.28;4962236;28;20220;-65
2021/10/03 06:26:05;;;;;;;;;;;;;;;14.59;42.30;94183.41;4962394;28;20005;-65
2021/10/03 06:28:30;;;;;;;;;;;;;;;14.65;42.01;94178.97;4962154;28;19964;-66
2021/10/03 06:30:55;;;;;;;;;;;;;;;15.31;40.61;94177.72;4960104;28;20021;-65
2021/10/03 06:33:21;;;;;;;;;;;;;;;15.60;40.12;94174.97;4964415;28;19925;-65
2021/10/03 06:35:46;;;;;;;;;;;;;;;15.72;39.78;94183.75;4966080;28;19914;-66
2021/10/03 06:38:11;;;;;;;;;;;;;;;15.45;39.90;94184.38;4966149;28;20290;-66
2021/10/03 06:40:36;;;;;;;;;;;;;;;15.97;39.43;94182.47;4965933;28;19914;-66
2021/10/03 06:43:02;;;;;;;;;;;;;;;15.80;39.21;94179.81;4965627;28;19918;-66
2021/10/03 06:45:27;;;;;;;;;;;;;;;16.04;38.96;94184.97;4966030;28;20509;-66
2021/10/03 06:47:52;;;;;;;;;;;;;;;16.22;38.70;94183.84;4965712;28;19922;-66
2021/10/03 06:50:18;;;;;;;;;;;;;;;16.41;38.03;94182.78;4966399;28;20009;-66
2021/10/03 06:52:43;;;;;;;;;;;;;;;16.37;38.18;94177.09;4965797;28;19914;-66
2021/10/03 06:55:09;;;;;;;;;;;;;;;16.61;37.38;94169.59;4965777;28;19914;-65
2021/10/03 06:57:34;;;;;;;;;;;;;;;16.31;38.30;94194.19;4966079;28;19917;-66
2021/10/03 07:00:01;;;;;;;;;;;;;;;16.59;37.91;94178.97;4965683;28;19922;-66
2021/10/03 07:02:27;;;;;;;;;;;;;;;16.71;37.47;94176.13;4965145;28;19914;-66
2021/10/03 07:04:56;;;;;;;;;;;;;;;16.93;37.02;94176.06;4964196;28;19924;-67
2021/10/03 07:07:21;;;;;;;;;;;;;;;15.22;40.25;94191.53;4965530;28;19929;-66
2021/10/03 07:09:46;;;;;;;;;;;;;;;15.10;40.86;94193.47;4965720;28;20496;-66
2021/10/03 07:12:12;;;;;;;;;;;;;;;16.33;38.70;94175.94;4961243;28;19921;-67
2021/10/03 07:14:37;;;;;;;;;;;;;;;15.92;38.92;94176.22;4972159;28;20316;-66
2021/10/03 07:17:03;;;;;;;;;;;;;;;15.29;39.86;94185.16;4965477;28;20158;-67
2021/10/03 07:19:28;;;;;;;;;;;;;;;15.86;38.90;94199.47;4965074;28;19914;-64
2021/10/03 07:21:53;;;;;;;;;;;;;;;16.32;38.09;94201.97;4966018;28;20341;-66
2021/10/03 07:24:18;;;;;;;;;;;;;;;16.27;38.26;94199.22;4964789;28;19922;-66
2021/10/03 07:26:44;;;;;;;;;;;;;;;15.86;39.50;94204.84;4964702;28;19922;-65
2021/10/03 07:29:09;;;;;;;;;;;;;;;15.45;39.96;94207.69;4965569;28;19918;-65
2021/10/03 07:31:35;;;;;;;;;;;;;;;16.15;38.45;94203.91;4965146;28;19921;-64
2021/10/03 07:34:00;;;;;;;;;;;;;;;14.83;40.21;94223.53;4965170;28;19913;-66
2021/10/03 07:36:25;;;;;;;;;;;;;;;14.61;42.58;94223.34;4963461;28;20016;-64
2021/10/03 07:38:51;;;;;;;;;;;;;;;15.06;40.46;94205.72;4964955;28;19925;-66
2021/10/03 07:41:16;;;;;;;;;;;;;;;16.03;38.49;94212.06;4965214;28;20257;-64
2021/10/03 07:43:43;;;;;;;;;;;;;;;15.96;38.29;94213.06;4964568;28;19917;-64
2021/10/03 07:46:08;;;;;;;;;;;;;;;16.46;38.39;94223.13;4956039;28;20372;-64
2021/10/03 07:48:34;;;;;;;;;;;;;;;16.31;38.03;94212.97;4964966;28;19965;-63
2021/10/03 07:50:59;;;;;;;;;;;;;;;15.68;40.15;94236.25;4964511;28;19964;-64
2021/10/03 07:53:24;;;;;;;;;;;;;;;16.30;37.93;94217.53;4964545;28;19958;-64
2021/10/03 07:55:49;;;;;;;;;;;;;;;16.85;37.06;94222.22;4974718;28;20024;-64
2021/10/03 07:58:15;;;;;;;;;;;;;;;16.70;37.87;94244.34;4984100;28;19917;-64
2021/10/03 08:00:40;;;;;;;;;;;;;;;16.30;38.15;94230.13;4984210;28;19971;-65
2021/10/03 08:03:06;;;;;;;;;;;;;;;15.88;38.36;94216.97;4983354;28;19948;-65
2021/10/03 08:05:33;;;;;;;;;;;;;;;15.28;40.33;94229.94;4984325;28;20367;-65
2021/10/03 08:07:59;;;;;;;;;;;;;;;15.91;40.22;94223.69;4983604;28;19913;-65
2021/10/03 08:10:24;;;;;;;;;;;;;;;16.43;37.82;94223.63;4984096;28;20422;-66
2021/10/03 08:12:49;;;;;;;;;;;;;;;16.60;37.33;94221.69;4983291;28;20358;-65
2021/10/03 08:15:15;;;;;;;;;;;;;;;15.49;39.48;94228.44;4983353;28;19933;-65
2021/10/03 08:17:40;;;;;;;;;;;;;;;16.22;38.43;94231.38;4982244;28;20261;-66
2021/10/03 08:20:05;;;;;;;;;;;;;;;15.83;38.27;94237.53;4967462;28;20300;-66
2021/10/03 08:22:31;;;;;;;;;;;;;;;16.65;37.59;94231.66;4951481;28;19918;-67
2021/10/03 08:24:56;;;;;;;;;;;;;;;16.17;37.98;94236.66;4945974;28;19918;-67
2021/10/03 08:27:21;;;;;;;;;;;;;;;15.41;40.44;94230.69;4959068;28;19952;-67
2021/10/03 08:29:47;;;;;;;;;;;;;;;13.38;44.14;94235.38;4956825;28;20020;-64
2021/10/03 08:32:12;;;;;;;;;;;;;;;15.17;40.56;94234.34;4949166;28;19980;-64
2021/10/03 08:34:37;;;;;;;;;;;;;;;15.25;40.01;94238.47;4958275;28;19929;-63
2021/10/03 08:37:02;;;;;;;;;;;;;;;15.64;39.46;94229.75;4952053;28;19914;-63
2021/10/03 08:39:28;;;;;;;;;;;;;;;16.10;38.98;94240.34;4958807;28;19957;-63
2021/10/03 08:41:53;;;;;;;;;;;;;;;15.69;39.11;94240.56;4962452;28;19942;-63
2021/10/03 08:44:18;;;;;;;;;;;;;;;16.36;37.78;94238.03;4962781;28;19929;-64
2021/10/03 08:46:44;;;;;;;;;;;;;;;16.34;37.66;94242.00;4963310;28;19925;-64
2021/10/03 08:49:10;;;;;;;;;;;;;;;16.39;37.53;94244.81;4961945;28;20407;-64
2021/10/03 08:51:35;;;;;;;;;;;;;;;16.45;37.12;94251.06;4961176;28;19953;-64
2021/10/03 08:54:00;;;;;;;;;;;;;;;15.92;38.37;94256.72;4963270;28;19922;-64
2021/10/03 08:56:25;;;;;;;;;;;;;;;16.46;37.91;94248.09;4962940;28;20394;-64
2021/10/03 08:58:53;;;;;;;;;;;;;;;15.97;39.48;94252.25;4963023;28;19956;-64
2021/10/03 09:01:19;;;;;;;;;;;;;;;15.40;39.93;94256.69;4963428;28;19910;-64
2021/10/03 09:03:44;;;;;;;;;;;;;;;15.80;39.46;94248.75;4961581;28;19973;-65
2021/10/03 09:06:10;;;;;;;;;;;;;;;15.56;40.17;94270.38;4960395;28;19940;-64
2021/10/03 09:08:42;;;;;;;;;;;;;;;16.30;38.76;94263.19;4962934;28;19962;-66
2021/10/03 09:11:08;;;;;;;;;;;;;;;15.33;40.66;94258.72;4959802;28;20415;-64
2021/10/03 09:13:33;;;;;;;;;;;;;;;16.17;39.63;94253.59;4961370;28;20006;-66
2021/10/03 09:16:25;;;;;;;;;;;;;;;16.38;39.49;94264.63;4960746;28;20276;-66
2021/10/03 09:18:54;;;;;;;;;;;;;;;16.34;39.23;94261.63;4959438;28;20036;-66
2021/10/03 09:21:28;;;;;;;;;;;;;;;16.29;39.61;94266.94;4956405;28;20486;-66
2021/10/03 09:24:00;;;;;;;;;;;;;;;15.86;40.49;94258.53;4969530;28;19921;-66
2021/10/03 09:26:25;;;;;;;;;;;;;;;16.25;40.29;94263.13;4977955;28;20495;-66
2021/10/03 09:28:50;;;;;;;;;;;;;;;15.65;41.75;94268.13;4976490;28;20036;-66
2021/10/03 09:31:17;;;;;;;;;;;;;;;16.16;39.78;94284.19;4971902;28;19982;-65
2021/10/03 09:33:44;;;;;;;;;;;;;;;16.26;39.86;94276.28;4961564;28;19962;-66
2021/10/03 09:36:09;;;;;;;;;;;;;;;15.59;42.11;94288.66;4962823;28;19993;-66
2021/10/03 09:38:42;;;;;;;;;;;;;;;15.28;42.91;94301.50;4962869;28;19966;-65
2021/10/03 09:41:07;;;;;;;;;;;;;;;15.09;43.68;94299.00;4959809;28;20017;-65
2021/10/03 09:43:43;;;;;;;;;;;;;;;15.98;41.18;94282.59;4962539;28;20407;-66
2021/10/03 09:46:08;;;;;;;;;;;;;;;16.42;40.62;94286.47;4959252;28;20391;-66
2021/10/03 09:48:47;;;;;;;;;;;;;;;16.35;39.91;94278.59;4962453;28;19989;-66
2021/10/03 09:51:13;;;;;;;;;;;;;;;16.46;40.86;94280.31;4962000;28;19994;-66
2021/10/03 09:53:38;;;;;;;;;;;;;;;16.49;39.57;94279.84;4961261;28;19962;-66
2021/10/03 09:56:04;;;;;;;;;;;;;;;16.42;41.54;94295.31;4961295;28;19987;-65
2021/10/03 09:58:29;;;;;;;;;;;;;;;16.24;42.12;94297.19;4962705;28;20439;-66
2021/10/03 10:00:54;;;;;;;;;;;;;;;16.72;41.43;94288.72;4962296;28;19993;-66
2021/10/03 10:03:19;;;;;;;;;;;;;;;16.73;39.66;94293.03;4960814;28;19982;-66
2021/10/03 10:05:45;;;;;;;;;;;;;;;15.97;42.14;94292.50;4960126;28;19982;-66
2021/10/03 10:08:10;;;;;;;;;;;;;;;16.37;40.89;94289.88;4962075;28;20013;-66
2021/10/03 10:10:35;;;;;;;;;;;;;;;16.01;41.81;94287.44;4962046;28;20018;-66
2021/10/03 10:13:02;;;;;;;;;;;;;;;15.79;43.10;94282.00;4960627;28;20469;-64
2021/10/03 10:15:27;;;;;;;;;;;;;;;15.94;43.24;94284.16;4958656;28;19929;-66
2021/10/03 10:17:53;;;;;;;;;;;;;;;16.10;42.85;94274.44;4975509;28;19918;-66
2021/10/03 10:20:20;;;;;;;;;;;;;;;16.22;42.03;94271.66;4958235;28;20320;-66
2021/10/03 10:22:55;;;;;;;;;;;;;;;16.24;41.19;94261.47;4961689;28;20009;-66
2021/10/03 10:25:36;;;;;;;;;;;;;;;16.23;42.00;94260.69;4961948;28;19932;-66
2021/10/03 10:28:02;;;;;;;;;;;;;;;16.13;42.60;94269.41;4958313;28;20260;-66
2021/10/03 10:30:27;;;;;;;;;;;;;;;16.06;42.36;94263.38;4961967;28;19924;-66
2021/10/03 10:32:56;;;;;;;;;;;;;;;16.21;42.26;94257.41;4961669;28;19918;-65
2021/10/03 10:35:27;;;;;;;;;;;;;;;16.19;42.09;94262.22;4961490;28;19918;-65
2021/10/03 10:37:54;;;;;;;;;;;;;;;16.18;42.17;94265.16;4960522;28;20025;-66
2021/10/03 10:40:22;;;;;;;;;;;;;;;16.13;42.15;94261.34;4961767;28;19918;-65
2021/10/03 10:42:48;;;;;;;;;;;;;;;15.96;41.49;94261.38;4960907;28;19941;-66
2021/10/03 10:45:28;;;;;;;;;;;;;;;15.86;41.70;94258.53;4959657;28;20019;-66
2021/10/03 10:48:06;;;;;;;;;;;;;;;15.93;41.58;94264.53;4961767;28;19917;-66
2021/10/03 10:50:31;;;;;;;;;;;;;;;16.25;41.48;94263.91;4959256;28;19922;-67
2021/10/03 10:53:14;;;;;;;;;;;;;;;16.37;41.02;94265.72;4961340;28;19927;-66
2021/10/03 10:55:39;;;;;;;;;;;;;;;15.28;42.52;94272.03;4957749;28;19965;-64
2021/10/03 10:58:05;;;;;;;;;;;;;;;15.07;42.83;94280.53;4961313;28;20286;-64
2021/10/03 11:00:30;;;;;;;;;;;;;;;15.67;41.67;94256.06;4961010;28;20372;-64
2021/10/03 11:02:57;;;;;;;;;;;;;;;15.63;41.28;94249.56;4961375;28;20705;-63
2021/10/03 11:05:34;;;;;;;;;;;;;;;15.96;41.31;94247.13;4958816;28;20327;-64
2021/10/03 11:08:06;;;;;;;;;;;;;;;16.36;40.19;94256.03;4957729;28;20338;-64
2021/10/03 11:10:36;;;;;;;;;;;;;;;16.57;39.61;94256.28;4961311;28;19929;-64
2021/10/03 11:13:21;;;;;;;;;;;;;;;16.10;40.50;94244.91;4958131;28;20310;-65
2021/10/03 11:15:46;;;;;;;;;;;;;;;16.21;40.00;94233.25;4960536;28;20108;-65
2021/10/03 11:18:12;;;;;;;;;;;;;;;16.54;39.18;94233.44;4961400;28;20609;-66
2021/10/03 11:20:46;;;;;;;;;;;;;;;16.61;39.47;94225.19;4960963;28;19929;-66
2021/10/03 11:23:18;;;;;;;;;;;;;;;16.61;39.81;94231.38;4955001;28;20117;-65
2021/10/03 11:25:44;;;;;;;;;;;;;;;16.82;38.67;94228.91;4961603;28;19918;-65
2021/10/03 11:28:09;;;;;;;;;;;;;;;16.49;39.26;94230.69;4961234;28;20385;-67
2021/10/03 11:30:34;;;;;;;;;;;;;;;16.09;39.72;94228.00;4959813;28;19914;-66
2021/10/03 11:32:59;;;;;;;;;;;;;;;16.23;39.38;94225.78;4961187;28;19918;-66
2021/10/03 11:35:25;;;;;;;;;;;;;;;16.47;39.65;94225.56;4961394;28;20701;-67
2021/10/03 11:37:52;;;;;;;;;;;;;;;15.99;40.72;94225.16;4961075;28;19914;-67
2021/10/03 11:40:18;;;;;;;;;;;;;;;16.67;38.76;94223.38;4960412;28;20101;-67
2021/10/03 11:42:48;;;;;;;;;;;;;;;16.96;38.42;94233.91;4958968;28;20351;-66
2021/10/03 11:45:13;;;;;;;;;;;;;;;17.43;36.84;94227.09;4971125;28;19972;-66
2021/10/03 11:47:40;;;;;;;;;;;;;;;17.60;37.12;94223.47;4959305;28;19957;-66
2021/10/03 11:50:06;;;;;;;;;;;;;;;17.80;37.14;94217.44;4960983;28;19972;-67
2021/10/03 11:52:32;;;;;;;;;;;;;;;17.92;36.77;94223.47;4960966;28;19949;-67
2021/10/03 11:54:59;;;;;;;;;;;;;;;18.10;36.73;94231.38;4959640;28;19986;-66
2021/10/03 11:57:28;;;;;;;;;;;;;;;18.35;35.42;94222.63;4959722;28;20454;-67
2021/10/03 12:00:12;;;;;;;;;;;;;;;18.27;36.19;94225.81;4960723;28;20514;-67
2021/10/03 12:02:41;;;;;;;;;;;;;;;17.80;36.82;94234.41;4960686;28;20026;-66
2021/10/03 12:05:07;;;;;;;;;;;;;;;17.63;36.82;94239.09;4956920;28;20352;-66
2021/10/03 12:07:32;;;;;;;;;;;;;;;17.40;37.42;94244.56;4957716;28;19971;-66
2021/10/03 12:09:59;;;;;;;;;;;;;;;18.25;36.36;94236.84;4961041;28;20419;-67
2021/10/03 12:12:43;;;;;;;;;;;;;;;16.18;38.63;94244.47;4956509;28;20006;-66
2021/10/03 12:15:08;;;;;;;;;;;;;;;17.36;37.24;94242.63;4951558;28;19990;-67
2021/10/03 12:17:47;;;;;;;;;;;;;;;16.51;37.99;94250.88;5092427;27;20232;-66
2021/10/03 12:20:12;;;;;;;;;;;;;;;17.19;37.13;94259.69;5063037;27;20455;-66
2021/10/03 12:22:53;;;;;;;;;;;;;;;17.29;37.91;94250.91;5016876;28;19973;-66
2021/10/03 12:25:19;;;;;;;;;;;;;;;17.70;36.39;94265.78;5034335;28;19980;-66
2021/10/03 12:27:56;;;;;;;;;;;;;;;18.04;35.99;94271.75;5035693;28;19993;-65
2021/10/03 12:30:21;;;;;;;;;;;;;;;16.73;37.33;94260.78;5034290;28;19980;-66
2021/10/03 12:33:02;;;;;;;;;;;;;;;17.83;35.82;94262.69;5033497;28;20019;-66
2021/10/03 12:35:28;;;;;;;;;;;;;;;18.05;35.76;94262.59;5033853;28;20600;-67
2021/10/03 12:37:53;;;;;;;;;;;;;;;17.62;36.48;94249.06;5035292;28;19981;-68
2021/10/03 12:40:21;;;;;;;;;;;;;;;16.98;37.34;94264.84;5035337;28;20689;-68
2021/10/03 12:42:46;;;;;;;;;;;;;;;17.14;36.29;94255.06;5059099;28;19977;-67